createdAt,value
2022-08-26T00:00:27.220Z,19.27
2022-08-26T00:01:30.069Z,19.22
2022-08-26T00:02:32.395Z,19.20
2022-08-26T00:03:36.457Z,19.22
2022-08-26T00:04:38.734Z,19.26
2022-08-26T00:05:42.194Z,19.19
2022-08-26T00:06:46.376Z,19.26
2022-08-26T00:07:49.617Z,19.35
2022-08-26T00:08:54.264Z,19.57
2022-08-26T00:09:56.478Z,19.69
2022-08-26T00:10:59.924Z,20.03
2022-08-26T00:12:02.449Z,20.33
2022-08-26T00:13:06.399Z,20.34
2022-08-26T00:14:08.738Z,20.38
2022-08-26T00:15:15.097Z,20.46
2022-08-26T00:16:17.396Z,20.25
2022-08-26T00:17:20.470Z,20.30
2022-08-26T00:18:22.860Z,20.36
2022-08-26T00:19:25.357Z,20.38
2022-08-26T00:20:31.255Z,20.11
2022-08-26T00:21:33.670Z,19.92
2022-08-26T00:22:37.125Z,19.91
2022-08-26T00:23:39.338Z,19.83
2022-08-26T00:24:47.880Z,19.79
2022-08-26T00:25:50.443Z,19.47
2022-08-26T00:26:52.738Z,19.26
2022-08-26T00:27:54.973Z,19.19
2022-08-26T00:28:58.301Z,19.07
2022-08-26T00:30:01.964Z,18.91
2022-08-26T00:31:04.439Z,18.97
2022-08-26T00:32:09.217Z,18.90
2022-08-26T00:33:15.767Z,18.91
2022-08-26T00:34:20.760Z,18.97
2022-08-26T00:35:23.511Z,18.96
2022-08-26T00:36:25.977Z,18.93
2022-08-26T00:37:32.429Z,18.95
2022-08-26T00:38:37.875Z,18.85
2022-08-26T00:39:41.428Z,18.87
2022-08-26T00:40:48.154Z,18.82
2022-08-26T00:41:50.527Z,18.78
2022-08-26T00:42:54.034Z,18.92
2022-08-26T00:43:56.424Z,19.02
2022-08-26T00:44:59.645Z,18.94
2022-08-26T00:46:10.388Z,18.99
2022-08-26T00:47:35.479Z,18.87
2022-08-26T00:48:43.939Z,18.78
2022-08-26T00:49:47.856Z,18.80
2022-08-26T00:50:55.952Z,18.80
2022-08-26T00:52:02.893Z,18.78
2022-08-26T00:53:21.468Z,18.73
2022-08-26T00:54:33.100Z,18.54
2022-08-26T00:55:41.153Z,18.56
2022-08-26T00:57:08.528Z,18.67
2022-08-26T00:58:19.061Z,18.68
2022-08-26T00:59:22.499Z,18.57
2022-08-26T01:00:28.089Z,18.53
2022-08-26T01:01:31.166Z,18.45
2022-08-26T01:02:34.065Z,18.37
2022-08-26T01:03:37.414Z,18.39
2022-08-26T01:04:40.158Z,18.41
2022-08-26T01:05:45.157Z,18.39
2022-08-26T01:06:51.445Z,18.41
2022-08-26T01:07:53.778Z,18.45
2022-08-26T01:08:56.435Z,18.42
2022-08-26T01:10:02.179Z,18.51
2022-08-26T01:11:06.698Z,18.51
2022-08-26T01:12:09.490Z,18.54
2022-08-26T01:13:14.021Z,18.60
2022-08-26T01:14:19.212Z,18.72
2022-08-26T01:15:26.624Z,18.69
2022-08-26T01:16:33.223Z,18.95
2022-08-26T01:17:37.612Z,18.93
2022-08-26T01:18:42.058Z,18.83
2022-08-26T01:19:50.975Z,18.84
2022-08-26T01:21:13.004Z,19.02
2022-08-26T01:22:31.075Z,19.10
2022-08-26T01:23:41.417Z,19.29
2022-08-26T01:24:48.188Z,19.50
2022-08-26T01:25:56.538Z,19.65
2022-08-26T01:27:05.001Z,19.84
2022-08-26T01:28:13.615Z,19.91
2022-08-26T01:29:19.064Z,20.02
2022-08-26T01:30:22.710Z,20.05
2022-08-26T01:31:31.886Z,20.17
2022-08-26T01:32:36.158Z,19.78
2022-08-26T01:34:00.700Z,19.49
2022-08-26T01:35:03.173Z,19.14
2022-08-26T01:36:07.318Z,18.95
2022-08-26T01:37:18.540Z,18.89
2022-08-26T01:38:20.949Z,18.74
2022-08-26T01:39:25.957Z,18.69
2022-08-26T01:40:33.052Z,18.59
2022-08-26T01:41:37.179Z,18.60
2022-08-26T01:42:41.304Z,18.54
2022-08-26T01:43:48.450Z,18.44
2022-08-26T01:45:00.083Z,18.47
2022-08-26T01:46:03.202Z,18.47
2022-08-26T01:47:09.341Z,18.43
2022-08-26T01:48:15.982Z,18.39
2022-08-26T01:49:20.850Z,18.30
2022-08-26T01:50:30.243Z,18.33
2022-08-26T01:51:37.028Z,18.31
2022-08-26T01:52:42.936Z,18.26
2022-08-26T01:53:46.879Z,18.20
2022-08-26T01:54:50.649Z,18.19
2022-08-26T01:55:58.528Z,18.15
2022-08-26T01:57:01.682Z,18.18
2022-08-26T01:58:08.169Z,18.23
2022-08-26T01:59:13.364Z,18.27
2022-08-26T02:00:17.016Z,18.18
2022-08-26T02:01:21.389Z,18.01
2022-08-26T02:02:24.578Z,18.13
2022-08-26T02:03:28.834Z,18.12
2022-08-26T02:04:39.880Z,18.21
2022-08-26T02:05:48.779Z,18.21
2022-08-26T02:06:54.578Z,18.15
2022-08-26T02:07:57.726Z,18.14
2022-08-26T02:09:01.785Z,18.09
2022-08-26T02:10:06.585Z,18.32
2022-08-26T02:11:09.302Z,18.39
2022-08-26T02:12:14.125Z,18.85
2022-08-26T02:13:16.586Z,19.20
2022-08-26T02:14:33.293Z,19.38
2022-08-26T02:15:40.431Z,19.42
2022-08-26T02:16:45.616Z,19.39
2022-08-26T02:17:47.960Z,19.59
2022-08-26T02:18:55.831Z,19.53
2022-08-26T02:19:58.364Z,19.64
2022-08-26T02:21:00.980Z,19.56
2022-08-26T02:22:07.198Z,19.45
2022-08-26T02:23:10.329Z,19.69
2022-08-26T02:24:19.299Z,19.52
2022-08-26T02:25:54.351Z,19.45
2022-08-26T02:26:58.304Z,19.47
2022-08-26T02:28:00.812Z,19.37
2022-08-26T02:29:09.708Z,19.46
2022-08-26T02:30:17.169Z,19.26
2022-08-26T02:31:19.875Z,19.05
2022-08-26T02:32:22.121Z,19.09
2022-08-26T02:33:28.690Z,18.87
2022-08-26T02:34:33.140Z,18.55
2022-08-26T02:35:36.405Z,18.38
2022-08-26T02:36:39.435Z,18.31
2022-08-26T02:37:42.516Z,18.12
2022-08-26T02:38:46.138Z,17.99
2022-08-26T02:39:48.508Z,17.97
2022-08-26T02:40:50.856Z,17.90
2022-08-26T02:41:53.341Z,17.92
2022-08-26T02:42:55.885Z,18.04
2022-08-26T02:43:59.804Z,18.18
2022-08-26T02:45:02.140Z,18.37
2022-08-26T02:46:05.895Z,18.63
2022-08-26T02:47:08.395Z,18.82
2022-08-26T02:48:15.021Z,19.21
2022-08-26T02:49:17.338Z,19.56
2022-08-26T02:50:19.987Z,19.54
2022-08-26T02:51:22.216Z,19.20
2022-08-26T02:52:25.395Z,18.75
2022-08-26T02:53:31.887Z,18.46
2022-08-26T02:54:34.714Z,18.30
2022-08-26T02:55:37.049Z,18.34
2022-08-26T02:56:39.489Z,18.62
2022-08-26T02:57:41.707Z,18.65
2022-08-26T02:58:44.144Z,18.98
2022-08-26T02:59:46.350Z,19.22
2022-08-26T03:00:52.754Z,19.60
2022-08-26T03:01:56.368Z,19.67
2022-08-26T03:02:59.567Z,19.80
2022-08-26T03:04:05.050Z,19.78
2022-08-26T03:05:08.354Z,19.84
2022-08-26T03:06:10.572Z,19.84
2022-08-26T03:07:12.901Z,19.91
2022-08-26T03:08:15.469Z,19.93
2022-08-26T03:09:18.941Z,20.04
2022-08-26T03:10:21.368Z,19.97
2022-08-26T03:11:23.758Z,19.50
2022-08-26T03:12:27.206Z,18.93
2022-08-26T03:13:29.967Z,18.45
2022-08-26T03:14:32.217Z,18.30
2022-08-26T03:15:34.558Z,18.30
2022-08-26T03:16:37.983Z,18.36
2022-08-26T03:17:40.821Z,18.16
2022-08-26T03:18:43.108Z,17.94
2022-08-26T03:19:57.289Z,17.87
2022-08-26T03:21:10.680Z,17.89
2022-08-26T03:22:14.484Z,17.89
2022-08-26T03:23:16.917Z,17.84
2022-08-26T03:24:20.931Z,17.97
2022-08-26T03:25:23.887Z,18.30
2022-08-26T03:26:27.266Z,18.70
2022-08-26T03:27:29.848Z,18.49
2022-08-26T03:28:35.237Z,18.24
2022-08-26T03:29:57.685Z,18.16
2022-08-26T03:31:00.099Z,18.04
2022-08-26T03:32:03.973Z,17.95
2022-08-26T03:33:07.153Z,17.98
2022-08-26T03:34:09.593Z,17.92
2022-08-26T03:35:13.556Z,17.70
2022-08-26T03:36:16.250Z,17.56
2022-08-26T03:37:19.290Z,17.53
2022-08-26T03:38:25.094Z,17.53
2022-08-26T03:39:27.639Z,17.48
2022-08-26T03:40:35.465Z,17.45
2022-08-26T03:41:38.226Z,17.43
2022-08-26T03:42:41.335Z,17.41
2022-08-26T03:43:48.328Z,17.51
2022-08-26T03:44:51.424Z,17.86
2022-08-26T03:45:53.797Z,18.00
2022-08-26T03:46:57.089Z,17.88
2022-08-26T03:47:59.761Z,17.68
2022-08-26T03:49:03.100Z,17.57
2022-08-26T03:50:08.189Z,17.52
2022-08-26T03:51:14.677Z,17.40
2022-08-26T03:52:20.803Z,17.42
2022-08-26T03:53:23.782Z,17.42
2022-08-26T03:54:26.860Z,17.33
2022-08-26T03:55:31.977Z,17.29
2022-08-26T03:56:34.427Z,17.61
2022-08-26T03:57:37.638Z,17.58
2022-08-26T03:58:42.861Z,17.47
2022-08-26T03:59:45.326Z,17.46
2022-08-26T04:00:47.706Z,17.50
2022-08-26T04:01:53.765Z,17.43
2022-08-26T04:02:56.904Z,17.41
2022-08-26T04:04:00.866Z,17.50
2022-08-26T04:05:03.972Z,17.49
2022-08-26T04:06:06.462Z,17.32
2022-08-26T04:07:08.830Z,17.26
2022-08-26T04:08:11.465Z,17.27
2022-08-26T04:09:17.631Z,17.18
2022-08-26T04:10:29.185Z,17.11
2022-08-26T04:11:34.542Z,17.15
2022-08-26T04:12:38.317Z,17.08
2022-08-26T04:13:40.593Z,17.13
2022-08-26T04:14:43.172Z,17.13
2022-08-26T04:15:46.856Z,17.12
2022-08-26T04:16:50.451Z,17.12
2022-08-26T04:17:53.118Z,17.29
2022-08-26T04:18:57.080Z,17.43
2022-08-26T04:19:59.429Z,17.46
2022-08-26T04:21:01.950Z,17.50
2022-08-26T04:22:04.589Z,17.53
2022-08-26T04:23:06.923Z,17.29
2022-08-26T04:24:12.317Z,17.28
2022-08-26T04:25:14.856Z,17.31
2022-08-26T04:26:20.022Z,17.46
2022-08-26T04:27:22.361Z,17.36
2022-08-26T04:28:24.758Z,17.36
2022-08-26T04:29:27.075Z,17.24
2022-08-26T04:30:29.342Z,17.26
2022-08-26T04:31:34.707Z,17.46
2022-08-26T04:32:37.445Z,17.39
2022-08-26T04:33:41.841Z,17.63
2022-08-26T04:34:44.873Z,17.50
2022-08-26T04:35:48.022Z,17.59
2022-08-26T04:36:51.345Z,17.67
2022-08-26T04:37:54.065Z,17.66
2022-08-26T04:38:57.096Z,17.49
2022-08-26T04:39:59.795Z,17.65
2022-08-26T04:41:03.303Z,17.95
2022-08-26T04:42:07.977Z,18.01
2022-08-26T04:43:11.213Z,18.62
2022-08-26T04:44:14.515Z,18.85
2022-08-26T04:45:16.770Z,19.05
2022-08-26T04:46:25.583Z,19.17
2022-08-26T04:47:32.100Z,19.13
2022-08-26T04:48:35.243Z,19.22
2022-08-26T04:49:38.185Z,19.50
2022-08-26T04:50:40.433Z,19.47
2022-08-26T04:51:45.866Z,19.64
2022-08-26T04:52:48.187Z,19.62
2022-08-26T04:53:50.997Z,19.60
2022-08-26T04:54:53.229Z,19.71
2022-08-26T04:55:55.739Z,19.91
2022-08-26T04:56:58.113Z,20.21
2022-08-26T04:58:00.392Z,20.11
2022-08-26T04:59:04.777Z,20.22
2022-08-26T05:00:12.353Z,20.52
2022-08-26T05:01:14.660Z,20.61
2022-08-26T05:02:18.037Z,20.84
2022-08-26T05:03:20.897Z,21.40
2022-08-26T05:04:23.290Z,21.87
2022-08-26T05:05:26.141Z,22.13
2022-08-26T05:06:29.173Z,22.33
2022-08-26T05:07:39.782Z,22.57
2022-08-26T05:08:42.531Z,22.47
2022-08-26T05:09:46.779Z,22.49
2022-08-26T05:10:53.393Z,22.83
2022-08-26T05:11:59.280Z,22.88
2022-08-26T05:13:03.417Z,22.89
2022-08-26T05:14:13.212Z,22.59
2022-08-26T05:15:16.175Z,22.59
2022-08-26T05:16:19.549Z,22.40
2022-08-26T05:17:23.251Z,21.95
2022-08-26T05:18:27.433Z,21.47
2022-08-26T05:19:30.343Z,21.00
2022-08-26T05:20:38.704Z,20.43
2022-08-26T05:21:43.518Z,19.80
2022-08-26T05:22:46.302Z,19.57
2022-08-26T05:23:51.598Z,19.18
2022-08-26T05:24:54.420Z,19.00
2022-08-26T05:25:59.176Z,18.93
2022-08-26T05:27:03.106Z,18.91
2022-08-26T05:28:16.337Z,18.95
2022-08-26T05:29:19.078Z,19.06
2022-08-26T05:30:22.870Z,19.00
2022-08-26T05:31:31.038Z,18.87
2022-08-26T05:32:33.406Z,18.87
2022-08-26T05:33:35.646Z,19.11
2022-08-26T05:34:37.986Z,19.54
2022-08-26T05:35:41.498Z,20.01
2022-08-26T05:36:43.733Z,20.35
2022-08-26T05:37:45.979Z,20.69
2022-08-26T05:38:49.013Z,20.97
2022-08-26T05:39:51.528Z,21.24
2022-08-26T05:40:53.790Z,21.33
2022-08-26T05:41:56.286Z,20.67
2022-08-26T05:42:59.856Z,20.55
2022-08-26T05:44:02.800Z,19.92
2022-08-26T05:45:05.484Z,19.78
2022-08-26T05:46:09.079Z,19.47
2022-08-26T05:47:11.855Z,19.16
2022-08-26T05:48:17.278Z,18.99
2022-08-26T05:49:20.448Z,19.08
2022-08-26T05:50:25.597Z,19.51
2022-08-26T05:51:30.454Z,19.18
2022-08-26T05:52:34.143Z,19.74
2022-08-26T05:53:38.500Z,19.66
2022-08-26T05:54:41.030Z,19.76
2022-08-26T05:55:48.976Z,20.09
2022-08-26T05:56:52.352Z,20.39
2022-08-26T05:57:55.100Z,20.81
2022-08-26T05:58:59.723Z,21.01
2022-08-26T06:00:03.656Z,20.52
2022-08-26T06:01:19.482Z,20.20
2022-08-26T06:02:24.067Z,20.04
2022-08-26T06:03:26.683Z,20.07
2022-08-26T06:04:29.903Z,19.88
2022-08-26T06:05:35.377Z,19.87
2022-08-26T06:06:41.489Z,19.77
2022-08-26T06:08:04.129Z,19.90
2022-08-26T06:09:10.975Z,20.42
2022-08-26T06:10:31.454Z,21.18
2022-08-26T06:11:34.728Z,22.11
2022-08-26T06:12:37.504Z,23.06
2022-08-26T06:13:41.194Z,23.83
2022-08-26T06:14:44.723Z,25.03
2022-08-26T06:15:51.820Z,25.77
2022-08-26T06:16:54.960Z,26.23
2022-08-26T06:17:57.893Z,26.89
2022-08-26T06:19:02.729Z,27.27
2022-08-26T06:20:05.252Z,26.98
2022-08-26T06:21:13.523Z,28.81
2022-08-26T06:22:35.438Z,29.24
2022-08-26T06:23:57.593Z,28.79
2022-08-26T06:25:19.949Z,29.74
2022-08-26T06:26:22.294Z,29.16
2022-08-26T06:27:27.323Z,28.72
2022-08-26T06:28:33.182Z,28.40
2022-08-26T06:29:37.591Z,28.84
2022-08-26T06:30:40.841Z,29.13
2022-08-26T06:31:44.061Z,29.09
2022-08-26T06:32:46.732Z,29.41
2022-08-26T06:33:50.488Z,30.22
2022-08-26T06:34:52.827Z,29.51
2022-08-26T06:35:55.354Z,29.63
2022-08-26T06:37:01.889Z,29.85
2022-08-26T06:38:05.433Z,29.98
2022-08-26T06:39:10.290Z,28.89
2022-08-26T06:40:13.159Z,28.76
2022-08-26T06:41:18.011Z,28.69
2022-08-26T06:42:20.397Z,27.22
2022-08-26T06:43:26.022Z,26.02
2022-08-26T06:44:28.384Z,25.37
2022-08-26T06:45:30.767Z,24.87
2022-08-26T06:46:35.375Z,24.01
2022-08-26T06:47:38.047Z,23.87
2022-08-26T06:48:40.697Z,23.62
2022-08-26T06:49:44.185Z,23.25
2022-08-26T06:50:48.290Z,23.45
2022-08-26T06:51:52.621Z,23.53
2022-08-26T06:52:54.995Z,23.22
2022-08-26T06:54:00.392Z,22.96
2022-08-26T06:55:03.697Z,22.96
2022-08-26T06:56:08.404Z,23.06
2022-08-26T06:57:12.764Z,23.30
2022-08-26T06:58:16.928Z,23.50
2022-08-26T06:59:19.784Z,23.60
2022-08-26T07:00:22.694Z,23.39
2022-08-26T07:01:28.485Z,23.68
2022-08-26T07:02:31.329Z,23.89
2022-08-26T07:03:35.026Z,24.18
2022-08-26T07:04:42.216Z,24.48
2022-08-26T07:05:45.344Z,24.64
2022-08-26T07:06:50.004Z,24.37
2022-08-26T07:07:55.425Z,24.06
2022-08-26T07:09:04.728Z,24.50
2022-08-26T07:10:08.505Z,25.02
2022-08-26T07:11:11.519Z,24.85
2022-08-26T07:12:14.556Z,25.02
2022-08-26T07:13:16.737Z,25.22
2022-08-26T07:14:34.387Z,24.88
2022-08-26T07:15:40.713Z,24.65
2022-08-26T07:16:43.043Z,24.69
2022-08-26T07:17:45.460Z,24.94
2022-08-26T07:18:48.498Z,24.92
2022-08-26T07:19:53.546Z,24.81
2022-08-26T07:20:55.816Z,24.67
2022-08-26T07:22:05.118Z,24.62
2022-08-26T07:23:09.992Z,24.82
2022-08-26T07:24:14.221Z,24.98
2022-08-26T07:25:17.370Z,24.65
2022-08-26T07:26:26.523Z,24.77
2022-08-26T07:27:30.890Z,25.30
2022-08-26T07:28:33.175Z,25.70
2022-08-26T07:29:36.469Z,25.42
2022-08-26T07:30:41.036Z,25.39
2022-08-26T07:31:45.115Z,25.55
2022-08-26T07:32:47.896Z,25.79
2022-08-26T07:33:51.034Z,26.11
2022-08-26T07:34:53.399Z,26.14
2022-08-26T07:35:56.040Z,25.97
2022-08-26T07:36:58.935Z,25.35
2022-08-26T07:38:01.710Z,25.57
2022-08-26T07:39:04.798Z,25.48
2022-08-26T07:40:07.773Z,25.43
2022-08-26T07:41:13.492Z,25.80
2022-08-26T07:42:18.599Z,25.88
2022-08-26T07:43:21.896Z,26.09
2022-08-26T07:44:27.297Z,25.92
2022-08-26T07:45:29.712Z,25.82
2022-08-26T07:46:32.157Z,25.91
2022-08-26T07:47:34.952Z,26.19
2022-08-26T07:48:37.790Z,26.24
2022-08-26T07:49:40.195Z,25.85
2022-08-26T07:50:50.505Z,25.60
2022-08-26T07:51:54.885Z,25.95
2022-08-26T07:52:57.216Z,26.16
2022-08-26T07:53:59.833Z,26.63
2022-08-26T07:55:02.668Z,26.63
2022-08-26T07:56:05.060Z,26.62
2022-08-26T07:57:08.352Z,26.85
2022-08-26T07:58:12.598Z,26.77
2022-08-26T07:59:16.964Z,26.65
2022-08-26T08:00:19.831Z,26.64
2022-08-26T08:01:24.764Z,26.67
2022-08-26T08:02:28.975Z,26.92
2022-08-26T08:03:31.675Z,27.11
2022-08-26T08:04:34.808Z,26.45
2022-08-26T08:05:38.300Z,26.48
2022-08-26T08:06:44.670Z,27.02
2022-08-26T08:07:47.297Z,27.35
2022-08-26T08:08:51.655Z,27.00
2022-08-26T08:09:54.040Z,27.06
2022-08-26T08:10:56.558Z,26.96
2022-08-26T08:11:59.475Z,27.00
2022-08-26T08:13:07.049Z,26.75
2022-08-26T08:14:13.109Z,27.33
2022-08-26T08:15:16.244Z,27.73
2022-08-26T08:16:18.844Z,27.75
2022-08-26T08:17:21.287Z,27.69
2022-08-26T08:18:23.941Z,28.04
2022-08-26T08:19:29.915Z,28.06
2022-08-26T08:20:42.282Z,28.28
2022-08-26T08:21:47.429Z,28.47
2022-08-26T08:22:50.799Z,28.42
2022-08-26T08:23:55.544Z,28.44
2022-08-26T08:24:58.024Z,28.27
2022-08-26T08:26:10.553Z,28.24
2022-08-26T08:27:12.884Z,28.07
2022-08-26T08:28:16.036Z,27.77
2022-08-26T08:29:18.406Z,28.05
2022-08-26T08:30:22.993Z,28.42
2022-08-26T08:31:55.839Z,28.77
2022-08-26T08:32:53.145Z,28.50
2022-08-26T08:33:55.525Z,28.49
2022-08-26T08:34:59.320Z,28.49
2022-08-26T08:36:02.039Z,28.58
2022-08-26T08:37:08.633Z,28.39
2022-08-26T08:38:12.822Z,28.76
2022-08-26T08:39:15.103Z,28.36
2022-08-26T08:40:18.285Z,28.12
2022-08-26T08:41:41.015Z,28.16
2022-08-26T08:42:43.255Z,28.17
2022-08-26T08:43:47.350Z,28.17
2022-08-26T08:44:52.802Z,28.02
2022-08-26T08:46:00.414Z,27.92
2022-08-26T08:47:12.993Z,27.90
2022-08-26T08:48:29.599Z,27.91
2022-08-26T08:49:33.865Z,28.16
2022-08-26T08:50:44.121Z,28.03
2022-08-26T08:51:59.224Z,27.77
2022-08-26T08:53:18.902Z,27.63
2022-08-26T08:54:21.923Z,27.98
2022-08-26T08:55:36.170Z,28.02
2022-08-26T08:56:59.794Z,28.19
2022-08-26T08:58:11.068Z,28.31
2022-08-26T08:59:18.615Z,28.17
2022-08-26T09:00:30.022Z,28.18
2022-08-26T09:01:45.005Z,28.22
2022-08-26T09:03:06.576Z,28.19
2022-08-26T09:04:46.165Z,28.36
2022-08-26T09:05:51.549Z,28.06
2022-08-26T09:08:06.790Z,28.09
2022-08-26T09:09:27.946Z,28.05
2022-08-26T09:10:43.393Z,28.17
2022-08-26T09:11:46.657Z,27.46
2022-08-26T09:12:51.209Z,27.68
2022-08-26T09:13:55.688Z,27.71
2022-08-26T09:15:20.717Z,28.01
2022-08-26T09:16:57.694Z,27.80
2022-08-26T09:18:09.034Z,27.84
2022-08-26T09:19:38.693Z,28.51
2022-08-26T09:20:59.025Z,28.50
2022-08-26T09:22:05.781Z,28.80
2022-08-26T09:23:11.446Z,28.70
2022-08-26T09:24:14.191Z,28.95
2022-08-26T09:25:16.803Z,29.06
2022-08-26T09:26:29.312Z,28.61
2022-08-26T09:27:38.887Z,28.49
2022-08-26T09:28:44.991Z,28.84
2022-08-26T09:29:50.460Z,29.13
2022-08-26T09:31:07.966Z,29.16
2022-08-26T09:32:22.120Z,29.61
2022-08-26T09:33:31.720Z,28.74
2022-08-26T09:34:34.007Z,28.86
2022-08-26T09:35:39.727Z,29.13
2022-08-26T09:36:51.475Z,28.84
2022-08-26T09:37:53.991Z,29.18
2022-08-26T09:38:57.003Z,29.42
2022-08-26T09:40:48.670Z,30.01
2022-08-26T09:42:12.887Z,29.77
2022-08-26T09:43:22.756Z,28.84
2022-08-26T09:44:25.625Z,28.76
2022-08-26T09:45:28.809Z,29.10
2022-08-26T09:46:32.998Z,29.56
2022-08-26T09:47:40.543Z,29.78
2022-08-26T09:48:43.291Z,29.93
2022-08-26T09:49:57.780Z,30.05
2022-08-26T09:51:24.031Z,30.41
2022-08-26T09:52:27.485Z,30.35
2022-08-26T09:53:33.728Z,29.98
2022-08-26T09:54:37.733Z,30.13
2022-08-26T09:55:44.172Z,30.47
2022-08-26T09:56:47.108Z,30.39
2022-08-26T09:57:52.395Z,30.50
2022-08-26T09:58:56.725Z,30.33
2022-08-26T10:00:01.208Z,29.85
2022-08-26T10:01:23.187Z,29.86
2022-08-26T10:02:34.322Z,30.15
2022-08-26T10:03:39.224Z,30.47
2022-08-26T10:04:50.836Z,31.09
2022-08-26T10:05:57.593Z,31.42
2022-08-26T10:07:09.893Z,31.70
2022-08-26T10:08:23.689Z,31.66
2022-08-26T10:09:28.097Z,31.35
2022-08-26T10:10:39.336Z,31.59
2022-08-26T10:11:51.323Z,32.11
2022-08-26T10:13:10.129Z,31.03
2022-08-26T10:14:21.694Z,30.65
2022-08-26T10:15:27.419Z,31.24
2022-08-26T10:16:36.892Z,31.30
2022-08-26T10:17:47.373Z,31.47
2022-08-26T10:18:59.900Z,31.77
2022-08-26T10:20:13.644Z,31.86
2022-08-26T10:21:32.753Z,31.40
2022-08-26T10:22:43.407Z,31.70
2022-08-26T10:23:51.541Z,30.90
2022-08-26T10:24:57.516Z,30.80
2022-08-26T10:26:15.501Z,30.91
2022-08-26T10:27:34.427Z,30.95
2022-08-26T10:28:53.769Z,31.53
2022-08-26T10:30:05.297Z,31.74
2022-08-26T10:31:28.054Z,31.58
2022-08-26T10:32:35.286Z,32.16
2022-08-26T10:33:43.182Z,32.20
2022-08-26T10:34:45.697Z,32.09
2022-08-26T10:35:55.339Z,31.90
2022-08-26T10:37:16.244Z,31.59
2022-08-26T10:38:23.832Z,31.22
2022-08-26T10:39:39.357Z,31.04
2022-08-26T10:40:46.369Z,31.27
2022-08-26T10:41:56.548Z,31.72
2022-08-26T10:43:11.012Z,31.97
2022-08-26T10:44:18.047Z,31.60
2022-08-26T10:45:25.366Z,31.12
2022-08-26T10:46:36.431Z,31.29
2022-08-26T10:47:54.663Z,30.86
2022-08-26T10:49:08.487Z,31.19
2022-08-26T10:50:12.846Z,31.27
2022-08-26T10:51:24.048Z,31.21
2022-08-26T10:52:29.412Z,31.40
2022-08-26T10:53:51.552Z,31.85
2022-08-26T10:55:11.410Z,31.99
2022-08-26T10:56:28.961Z,31.99
2022-08-26T10:57:46.398Z,32.29
2022-08-26T10:59:19.325Z,31.86
2022-08-26T11:01:00.470Z,32.02
2022-08-26T11:02:15.373Z,32.53
2022-08-26T11:03:41.505Z,32.80
2022-08-26T11:04:57.739Z,32.86
2022-08-26T11:06:20.438Z,32.38
2022-08-26T11:07:33.188Z,32.52
2022-08-26T11:08:45.007Z,32.72
2022-08-26T11:09:49.042Z,32.84
2022-08-26T11:10:51.969Z,32.88
2022-08-26T11:11:54.442Z,32.92
2022-08-26T11:12:58.560Z,32.90
2022-08-26T11:14:04.979Z,32.65
2022-08-26T11:15:12.502Z,32.02
2022-08-26T11:16:34.274Z,32.71
2022-08-26T11:17:45.788Z,33.18
2022-08-26T11:18:48.832Z,33.43
2022-08-26T11:20:03.308Z,33.14
2022-08-26T11:21:47.784Z,32.79
2022-08-26T11:22:53.771Z,32.66
2022-08-26T11:23:57.145Z,32.81
2022-08-26T11:25:02.553Z,33.01
2022-08-26T11:26:07.830Z,33.03
2022-08-26T11:27:32.418Z,32.88
2022-08-26T11:28:44.102Z,32.02
2022-08-26T11:29:57.224Z,30.96
2022-08-26T11:30:59.704Z,30.84
2022-08-26T11:32:02.615Z,30.78
2022-08-26T11:33:06.088Z,31.13
2022-08-26T11:34:13.666Z,31.06
2022-08-26T11:35:23.249Z,31.13
2022-08-26T11:36:35.050Z,31.90
2022-08-26T11:37:50.905Z,31.88
2022-08-26T11:38:54.804Z,31.85
2022-08-26T11:39:57.574Z,31.97
2022-08-26T11:41:11.144Z,31.96
2022-08-26T11:42:39.348Z,31.15
2022-08-26T11:43:42.546Z,30.72
2022-08-26T11:44:49.340Z,30.89
2022-08-26T11:46:00.133Z,30.77
2022-08-26T11:47:03.258Z,31.12
2022-08-26T11:48:30.711Z,31.36
2022-08-26T11:49:33.531Z,32.01
2022-08-26T11:50:35.867Z,32.15
2022-08-26T11:51:40.855Z,32.20
2022-08-26T11:53:10.733Z,32.48
2022-08-26T11:54:26.936Z,32.58
2022-08-26T11:55:43.318Z,32.64
2022-08-26T11:56:48.763Z,32.53
2022-08-26T11:57:54.610Z,32.08
2022-08-26T11:58:59.850Z,32.25
2022-08-26T12:00:03.913Z,32.08
2022-08-26T12:01:09.826Z,32.78
2022-08-26T12:02:17.872Z,32.89
2022-08-26T12:03:46.438Z,33.19
2022-08-26T12:04:51.879Z,33.15
2022-08-26T12:05:55.066Z,32.93
2022-08-26T12:07:00.693Z,33.10
2022-08-26T12:08:08.940Z,33.23
2022-08-26T12:09:20.493Z,33.33
2022-08-26T12:10:32.718Z,32.98
2022-08-26T12:11:37.545Z,33.11
2022-08-26T12:12:42.465Z,33.43
2022-08-26T12:13:56.163Z,32.56
2022-08-26T12:15:25.402Z,31.88
2022-08-26T12:16:31.669Z,32.41
2022-08-26T12:17:33.962Z,32.45
2022-08-26T12:18:38.945Z,32.78
2022-08-26T12:19:41.492Z,33.14
2022-08-26T12:20:47.923Z,33.11
2022-08-26T12:21:50.748Z,33.24
2022-08-26T12:22:53.942Z,33.46
2022-08-26T12:23:59.277Z,33.26
2022-08-26T12:25:07.380Z,32.56
2022-08-26T12:26:36.826Z,32.62
2022-08-26T12:27:42.693Z,33.00
2022-08-26T12:28:48.599Z,33.36
2022-08-26T12:30:12.357Z,33.28
2022-08-26T12:31:32.211Z,32.72
2022-08-26T12:32:36.309Z,32.13
2022-08-26T12:33:38.861Z,31.97
2022-08-26T12:34:43.191Z,31.82
2022-08-26T12:35:45.457Z,31.69
2022-08-26T12:36:56.762Z,31.45
2022-08-26T12:38:00.678Z,31.58
2022-08-26T12:39:11.861Z,32.08
2022-08-26T12:40:45.623Z,32.35
2022-08-26T12:41:53.638Z,32.14
2022-08-26T12:42:59.060Z,31.84
2022-08-26T12:44:01.409Z,31.53
2022-08-26T12:45:07.316Z,31.41
2022-08-26T12:46:16.435Z,31.33
2022-08-26T12:47:43.188Z,31.08
2022-08-26T12:48:49.475Z,30.97
2022-08-26T12:50:29.510Z,31.62
2022-08-26T12:51:34.746Z,32.18
2022-08-26T12:52:59.891Z,32.52
2022-08-26T12:54:06.817Z,32.50
2022-08-26T12:55:20.445Z,32.41
2022-08-26T12:56:38.732Z,32.12
2022-08-26T12:57:41.026Z,31.56
2022-08-26T12:58:44.161Z,31.46
2022-08-26T12:59:46.509Z,31.39
2022-08-26T13:00:53.033Z,31.30
2022-08-26T13:01:55.510Z,31.48
2022-08-26T13:02:59.563Z,31.23
2022-08-26T13:04:01.866Z,31.70
2022-08-26T13:05:05.208Z,31.73
2022-08-26T13:06:31.215Z,31.99
2022-08-26T13:07:33.695Z,31.88
2022-08-26T13:08:39.186Z,31.91
2022-08-26T13:09:41.711Z,31.81
2022-08-26T13:10:47.744Z,31.89
2022-08-26T13:11:52.931Z,31.35
2022-08-26T13:12:55.338Z,30.96
2022-08-26T13:14:01.801Z,30.54
2022-08-26T13:15:06.100Z,30.33
2022-08-26T13:16:08.431Z,30.74
2022-08-26T13:17:10.821Z,30.61
2022-08-26T13:18:13.192Z,30.20
2022-08-26T13:19:19.146Z,30.47
2022-08-26T13:20:21.646Z,30.25
2022-08-26T13:21:27.627Z,30.80
2022-08-26T13:22:30.039Z,31.37
2022-08-26T13:23:32.475Z,31.49
2022-08-26T13:24:39.788Z,30.96
2022-08-26T13:25:42.300Z,30.72
2022-08-26T13:26:46.925Z,30.51
2022-08-26T13:27:49.378Z,30.21
2022-08-26T13:29:01.870Z,30.00
2022-08-26T13:30:05.209Z,30.17
2022-08-26T13:31:08.922Z,30.37
2022-08-26T13:32:11.644Z,30.46
2022-08-26T13:33:16.664Z,30.35
2022-08-26T13:34:23.310Z,30.46
2022-08-26T13:35:26.116Z,30.12
2022-08-26T13:36:28.649Z,30.15
2022-08-26T13:37:34.178Z,30.20
2022-08-26T13:38:37.886Z,30.07
2022-08-26T13:39:42.177Z,29.83
2022-08-26T13:40:44.679Z,29.78
2022-08-26T13:41:47.118Z,29.56
2022-08-26T13:42:50.002Z,29.46
2022-08-26T13:43:52.761Z,29.49
2022-08-26T13:44:57.983Z,29.52
2022-08-26T13:46:01.471Z,29.61
2022-08-26T13:47:03.934Z,29.41
2022-08-26T13:48:07.804Z,29.21
2022-08-26T13:49:11.145Z,29.13
2022-08-26T13:50:13.447Z,29.13
2022-08-26T13:51:16.485Z,29.13
2022-08-26T13:52:18.825Z,29.20
2022-08-26T13:53:33.467Z,29.27
2022-08-26T13:54:36.141Z,29.19
2022-08-26T13:55:38.664Z,29.16
2022-08-26T13:56:40.922Z,29.10
2022-08-26T13:57:43.223Z,29.14
2022-08-26T13:58:46.750Z,29.26
2022-08-26T13:59:49.611Z,29.35
2022-08-26T14:00:51.957Z,29.41
2022-08-26T14:01:54.410Z,29.26
2022-08-26T14:02:57.430Z,29.05
2022-08-26T14:04:00.014Z,29.03
2022-08-26T14:05:02.424Z,29.01
2022-08-26T14:06:05.291Z,29.02
2022-08-26T14:07:08.339Z,28.98
2022-08-26T14:08:10.808Z,29.08
2022-08-26T14:09:13.133Z,28.98
2022-08-26T14:10:15.777Z,28.99
2022-08-26T14:11:18.331Z,29.03
2022-08-26T14:12:20.708Z,29.11
2022-08-26T14:13:22.993Z,29.13
2022-08-26T14:14:25.717Z,29.20
2022-08-26T14:15:29.051Z,29.23
2022-08-26T14:16:36.164Z,29.15
2022-08-26T14:17:39.585Z,29.10
2022-08-26T14:18:45.270Z,29.07